sensor_id;sensor_type;location;lat;lon;timestamp;P1;durP1;ratioP1;P2;durP2;ratioP2
5955;SDS011;3004;48.080;11.600;2022-11-11T00:02:03;66.77;;;5.20;;
5955;SDS011;3004;48.080;11.600;2022-11-11T00:04:36;67.13;;;5.30;;
5955;SDS011;3004;48.080;11.600;2022-11-11T00:07:04;67.40;;;5.50;;
5955;SDS011;3004;48.080;11.600;2022-11-11T00:09:39;67.00;;;5.27;;
5955;SDS011;3004;48.080;11.600;2022-11-11T00:12:17;66.60;;;5.20;;
5955;SDS011;3004;48.080;11.600;2022-11-11T00:14:44;77.27;;;6.53;;
5955;SDS011;3004;48.080;11.600;2022-11-11T00:17:11;67.13;;;5.30;;
5955;SDS011;3004;48.080;11.600;2022-11-11T00:19:56;66.77;;;5.17;;
5955;SDS011;3004;48.080;11.600;2022-11-11T00:22:43;66.57;;;5.13;;
5955;SDS011;3004;48.080;11.600;2022-11-11T00:25:30;66.87;;;6.47;;
5955;SDS011;3004;48.080;11.600;2022-11-11T00:28:04;66.80;;;5.13;;
5955;SDS011;3004;48.080;11.600;2022-11-11T00:30:31;67.27;;;5.50;;
5955;SDS011;3004;48.080;11.600;2022-11-11T00:32:58;66.77;;;5.23;;
5955;SDS011;3004;48.080;11.600;2022-11-11T00:35:34;67.03;;;5.67;;
5955;SDS011;3004;48.080;11.600;2022-11-11T00:38:22;66.97;;;5.70;;
5955;SDS011;3004;48.080;11.600;2022-11-11T00:41:21;66.83;;;5.17;;
5955;SDS011;3004;48.080;11.600;2022-11-11T00:43:56;66.37;;;4.93;;
5955;SDS011;3004;48.080;11.600;2022-11-11T00:46:34;66.10;;;4.83;;
5955;SDS011;3004;48.080;11.600;2022-11-11T00:49:26;66.57;;;4.90;;
5955;SDS011;3004;48.080;11.600;2022-11-11T00:52:27;66.47;;;4.90;;
5955;SDS011;3004;48.080;11.600;2022-11-11T00:54:59;66.27;;;4.80;;
5955;SDS011;3004;48.080;11.600;2022-11-11T00:57:34;66.67;;;5.10;;
5955;SDS011;3004;48.080;11.600;2022-11-11T01:02:43;66.10;;;4.87;;
5955;SDS011;3004;48.080;11.600;2022-11-11T01:05:24;66.37;;;4.90;;
5955;SDS011;3004;48.080;11.600;2022-11-11T01:07:59;66.47;;;4.97;;
5955;SDS011;3004;48.080;11.600;2022-11-11T01:10:38;66.33;;;4.87;;
5955;SDS011;3004;48.080;11.600;2022-11-11T01:13:19;66.47;;;4.90;;
5955;SDS011;3004;48.080;11.600;2022-11-11T01:16:11;65.27;;;4.80;;
5955;SDS011;3004;48.080;11.600;2022-11-11T01:18:45;66.37;;;4.97;;
5955;SDS011;3004;48.080;11.600;2022-11-11T01:24:05;66.60;;;5.00;;
5955;SDS011;3004;48.080;11.600;2022-11-11T01:26:52;66.30;;;5.03;;
5955;SDS011;3004;48.080;11.600;2022-11-11T01:29:38;66.57;;;5.10;;
5955;SDS011;3004;48.080;11.600;2022-11-11T01:32:15;66.30;;;5.03;;
5955;SDS011;3004;48.080;11.600;2022-11-11T01:34:58;66.53;;;5.20;;
5955;SDS011;3004;48.080;11.600;2022-11-11T01:37:40;66.67;;;5.00;;
5955;SDS011;3004;48.080;11.600;2022-11-11T01:40:13;66.40;;;5.00;;
5955;SDS011;3004;48.080;11.600;2022-11-11T01:46:13;66.57;;;5.00;;
5955;SDS011;3004;48.080;11.600;2022-11-11T01:51:50;66.97;;;5.60;;
5955;SDS011;3004;48.080;11.600;2022-11-11T01:57:30;66.30;;;5.10;;
5955;SDS011;3004;48.080;11.600;2022-11-11T02:03:08;68.77;;;6.17;;
5955;SDS011;3004;48.080;11.600;2022-11-11T02:05:37;68.87;;;7.00;;
5955;SDS011;3004;48.080;11.600;2022-11-11T02:08:26;67.60;;;5.60;;
5955;SDS011;3004;48.080;11.600;2022-11-11T02:11:15;66.47;;;5.00;;
5955;SDS011;3004;48.080;11.600;2022-11-11T02:13:59;66.37;;;5.10;;
5955;SDS011;3004;48.080;11.600;2022-11-11T02:16:45;66.47;;;5.10;;
5955;SDS011;3004;48.080;11.600;2022-11-11T02:19:27;66.27;;;4.97;;
5955;SDS011;3004;48.080;11.600;2022-11-11T02:22:04;66.57;;;5.00;;
5955;SDS011;3004;48.080;11.600;2022-11-11T02:24:46;66.57;;;5.00;;
5955;SDS011;3004;48.080;11.600;2022-11-11T02:27:18;66.50;;;5.03;;
5955;SDS011;3004;48.080;11.600;2022-11-11T02:29:49;66.20;;;5.10;;
5955;SDS011;3004;48.080;11.600;2022-11-11T02:32:32;67.40;;;6.20;;
5955;SDS011;3004;48.080;11.600;2022-11-11T02:35:07;65.97;;;4.80;;
5955;SDS011;3004;48.080;11.600;2022-11-11T02:37:39;66.47;;;5.00;;
5955;SDS011;3004;48.080;11.600;2022-11-11T02:43:30;66.60;;;5.43;;
5955;SDS011;3004;48.080;11.600;2022-11-11T02:46:21;66.17;;;4.77;;
5955;SDS011;3004;48.080;11.600;2022-11-11T02:55:33;66.20;;;4.93;;
5955;SDS011;3004;48.080;11.600;2022-11-11T02:59:00;67.13;;;5.60;;
5955;SDS011;3004;48.080;11.600;2022-11-11T03:02:47;66.37;;;5.20;;
5955;SDS011;3004;48.080;11.600;2022-11-11T03:04:45;66.37;;;4.87;;
5955;SDS011;3004;48.080;11.600;2022-11-11T03:10:51;66.37;;;5.07;;
5955;SDS011;3004;48.080;11.600;2022-11-11T03:14:48;66.97;;;5.10;;
5955;SDS011;3004;48.080;11.600;2022-11-11T03:20:09;66.20;;;4.97;;
5955;SDS011;3004;48.080;11.600;2022-11-11T03:23:10;66.93;;;5.17;;
5955;SDS011;3004;48.080;11.600;2022-11-11T03:25:41;66.83;;;5.03;;
5955;SDS011;3004;48.080;11.600;2022-11-11T03:28:14;66.70;;;5.13;;
5955;SDS011;3004;48.080;11.600;2022-11-11T03:30:49;67.03;;;5.60;;
5955;SDS011;3004;48.080;11.600;2022-11-11T03:36:21;66.60;;;5.10;;
5955;SDS011;3004;48.080;11.600;2022-11-11T03:39:12;66.67;;;5.00;;
5955;SDS011;3004;48.080;11.600;2022-11-11T03:42:10;66.47;;;5.00;;
5955;SDS011;3004;48.080;11.600;2022-11-11T03:47:52;66.40;;;5.10;;
5955;SDS011;3004;48.080;11.600;2022-11-11T03:50:21;66.93;;;5.50;;
5955;SDS011;3004;48.080;11.600;2022-11-11T03:52:51;66.67;;;5.00;;
5955;SDS011;3004;48.080;11.600;2022-11-11T03:55:29;66.50;;;5.10;;
5955;SDS011;3004;48.080;11.600;2022-11-11T03:58:15;66.87;;;5.23;;
5955;SDS011;3004;48.080;11.600;2022-11-11T04:00:49;67.27;;;5.43;;
5955;SDS011;3004;48.080;11.600;2022-11-11T04:03:36;67.17;;;5.57;;
5955;SDS011;3004;48.080;11.600;2022-11-11T04:09:39;67.67;;;5.67;;
5955;SDS011;3004;48.080;11.600;2022-11-11T04:12:44;67.50;;;5.80;;
5955;SDS011;3004;48.080;11.600;2022-11-11T04:15:49;67.97;;;6.10;;
5955;SDS011;3004;48.080;11.600;2022-11-11T04:18:33;67.80;;;6.03;;
5955;SDS011;3004;48.080;11.600;2022-11-11T04:21:19;68.07;;;6.10;;
5955;SDS011;3004;48.080;11.600;2022-11-11T04:24:06;67.90;;;6.20;;
5955;SDS011;3004;48.080;11.600;2022-11-11T04:26:54;68.20;;;6.27;;
5955;SDS011;3004;48.080;11.600;2022-11-11T04:29:25;68.47;;;6.33;;
5955;SDS011;3004;48.080;11.600;2022-11-11T04:31:56;68.47;;;6.73;;
5955;SDS011;3004;48.080;11.600;2022-11-11T04:34:44;68.50;;;6.50;;
5955;SDS011;3004;48.080;11.600;2022-11-11T04:37:16;68.67;;;6.40;;
5955;SDS011;3004;48.080;11.600;2022-11-11T04:39:49;68.60;;;6.40;;
5955;SDS011;3004;48.080;11.600;2022-11-11T04:42:33;68.30;;;6.30;;
5955;SDS011;3004;48.080;11.600;2022-11-11T04:45:16;68.17;;;6.30;;
5955;SDS011;3004;48.080;11.600;2022-11-11T04:48:00;68.27;;;6.30;;
5955;SDS011;3004;48.080;11.600;2022-11-11T04:50:38;68.27;;;6.43;;
5955;SDS011;3004;48.080;11.600;2022-11-11T04:53:09;68.37;;;6.50;;
5955;SDS011;3004;48.080;11.600;2022-11-11T04:55:42;68.20;;;6.50;;
5955;SDS011;3004;48.080;11.600;2022-11-11T04:58:34;68.50;;;6.50;;
5955;SDS011;3004;48.080;11.600;2022-11-11T05:01:18;68.27;;;6.50;;
5955;SDS011;3004;48.080;11.600;2022-11-11T05:04:00;68.10;;;6.47;;
5955;SDS011;3004;48.080;11.600;2022-11-11T05:06:33;68.17;;;6.70;;
5955;SDS011;3004;48.080;11.600;2022-11-11T05:09:25;68.27;;;6.60;;
5955;SDS011;3004;48.080;11.600;2022-11-11T05:12:02;68.07;;;6.30;;
5955;SDS011;3004;48.080;11.600;2022-11-11T05:14:35;68.07;;;6.20;;
5955;SDS011;3004;48.080;11.600;2022-11-11T05:17:19;67.97;;;6.30;;
5955;SDS011;3004;48.080;11.600;2022-11-11T05:20:04;68.23;;;6.40;;
5955;SDS011;3004;48.080;11.600;2022-11-11T05:22:49;68.20;;;6.30;;
5955;SDS011;3004;48.080;11.600;2022-11-11T05:25:25;68.17;;;6.40;;
5955;SDS011;3004;48.080;11.600;2022-11-11T05:27:55;68.17;;;6.40;;
5955;SDS011;3004;48.080;11.600;2022-11-11T05:30:27;67.73;;;6.40;;
5955;SDS011;3004;48.080;11.600;2022-11-11T05:32:56;67.83;;;6.53;;
5955;SDS011;3004;48.080;11.600;2022-11-11T05:35:32;68.00;;;6.43;;
5955;SDS011;3004;48.080;11.600;2022-11-11T05:38:10;67.90;;;6.43;;
5955;SDS011;3004;48.080;11.600;2022-11-11T05:41:11;67.90;;;6.40;;
5955;SDS011;3004;48.080;11.600;2022-11-11T05:46:24;68.10;;;6.33;;
5955;SDS011;3004;48.080;11.600;2022-11-11T05:48:58;67.60;;;6.40;;
5955;SDS011;3004;48.080;11.600;2022-11-11T05:51:48;68.17;;;6.30;;
5955;SDS011;3004;48.080;11.600;2022-11-11T05:54:22;67.97;;;6.40;;
5955;SDS011;3004;48.080;11.600;2022-11-11T05:57:01;67.87;;;6.40;;
5955;SDS011;3004;48.080;11.600;2022-11-11T05:59:53;68.33;;;6.40;;
5955;SDS011;3004;48.080;11.600;2022-11-11T06:02:23;67.97;;;6.47;;
5955;SDS011;3004;48.080;11.600;2022-11-11T06:04:56;68.33;;;6.47;;
5955;SDS011;3004;48.080;11.600;2022-11-11T06:07:24;68.23;;;6.37;;
5955;SDS011;3004;48.080;11.600;2022-11-11T06:09:51;67.77;;;6.33;;
5955;SDS011;3004;48.080;11.600;2022-11-11T06:12:50;68.00;;;6.43;;
5955;SDS011;3004;48.080;11.600;2022-11-11T06:15:38;67.40;;;6.23;;
5955;SDS011;3004;48.080;11.600;2022-11-11T06:18:09;67.60;;;6.20;;
5955;SDS011;3004;48.080;11.600;2022-11-11T06:20:53;68.00;;;6.30;;
5955;SDS011;3004;48.080;11.600;2022-11-11T06:23:26;67.80;;;6.27;;
5955;SDS011;3004;48.080;11.600;2022-11-11T06:25:58;69.83;;;7.30;;
5955;SDS011;3004;48.080;11.600;2022-11-11T06:28:42;67.60;;;6.27;;
5955;SDS011;3004;48.080;11.600;2022-11-11T06:31:31;67.77;;;6.27;;
5955;SDS011;3004;48.080;11.600;2022-11-11T06:34:14;67.60;;;6.20;;
5955;SDS011;3004;48.080;11.600;2022-11-11T06:37:01;67.73;;;6.27;;
5955;SDS011;3004;48.080;11.600;2022-11-11T06:39:37;72.10;;;8.77;;
5955;SDS011;3004;48.080;11.600;2022-11-11T06:56:12;68.47;;;6.90;;
5955;SDS011;3004;48.080;11.600;2022-11-11T06:58:54;68.73;;;6.80;;
5955;SDS011;3004;48.080;11.600;2022-11-11T07:01:37;68.27;;;6.70;;
5955;SDS011;3004;48.080;11.600;2022-11-11T07:04:07;68.50;;;6.77;;
5955;SDS011;3004;48.080;11.600;2022-11-11T07:06:38;68.07;;;6.63;;
5955;SDS011;3004;48.080;11.600;2022-11-11T07:09:10;68.27;;;6.70;;
5955;SDS011;3004;48.080;11.600;2022-11-11T07:11:37;68.57;;;6.70;;
5955;SDS011;3004;48.080;11.600;2022-11-11T07:14:20;68.47;;;6.60;;
5955;SDS011;3004;48.080;11.600;2022-11-11T07:16:49;68.37;;;6.80;;
5955;SDS011;3004;48.080;11.600;2022-11-11T07:19:31;68.57;;;6.83;;
5955;SDS011;3004;48.080;11.600;2022-11-11T07:22:16;68.00;;;6.70;;
5955;SDS011;3004;48.080;11.600;2022-11-11T07:24:48;68.30;;;6.70;;
5955;SDS011;3004;48.080;11.600;2022-11-11T07:27:23;68.40;;;6.73;;
5955;SDS011;3004;48.080;11.600;2022-11-11T07:32:44;69.37;;;7.53;;
5955;SDS011;3004;48.080;11.600;2022-11-11T07:35:21;68.57;;;6.77;;
5955;SDS011;3004;48.080;11.600;2022-11-11T07:37:49;68.87;;;6.73;;
5955;SDS011;3004;48.080;11.600;2022-11-11T07:40:22;69.07;;;6.97;;
5955;SDS011;3004;48.080;11.600;2022-11-11T07:42:50;68.97;;;7.07;;
5955;SDS011;3004;48.080;11.600;2022-11-11T07:45:37;69.10;;;7.10;;
5955;SDS011;3004;48.080;11.600;2022-11-11T07:48:23;72.67;;;8.73;;
5955;SDS011;3004;48.080;11.600;2022-11-11T07:51:00;69.67;;;7.33;;
5955;SDS011;3004;48.080;11.600;2022-11-11T07:53:59;69.37;;;7.33;;
5955;SDS011;3004;48.080;11.600;2022-11-11T07:59:31;69.80;;;7.53;;
5955;SDS011;3004;48.080;11.600;2022-11-11T08:02:01;69.90;;;7.60;;
5955;SDS011;3004;48.080;11.600;2022-11-11T08:04:56;70.17;;;8.00;;
5955;SDS011;3004;48.080;11.600;2022-11-11T08:07:45;70.17;;;7.73;;
5955;SDS011;3004;48.080;11.600;2022-11-11T08:10:48;70.07;;;8.30;;
5955;SDS011;3004;48.080;11.600;2022-11-11T08:16:41;69.87;;;8.07;;
5955;SDS011;3004;48.080;11.600;2022-11-11T08:19:42;69.67;;;8.17;;
5955;SDS011;3004;48.080;11.600;2022-11-11T08:22:27;69.50;;;8.20;;
5955;SDS011;3004;48.080;11.600;2022-11-11T08:24:57;69.77;;;8.27;;
5955;SDS011;3004;48.080;11.600;2022-11-11T08:27:32;69.97;;;8.70;;
5955;SDS011;3004;48.080;11.600;2022-11-11T08:30:22;69.87;;;8.37;;
5955;SDS011;3004;48.080;11.600;2022-11-11T08:36:33;70.47;;;8.80;;
5955;SDS011;3004;48.080;11.600;2022-11-11T08:39:43;70.27;;;8.40;;
5955;SDS011;3004;48.080;11.600;2022-11-11T08:42:27;70.57;;;8.73;;
5955;SDS011;3004;48.080;11.600;2022-11-11T08:45:58;70.43;;;8.30;;
5955;SDS011;3004;48.080;11.600;2022-11-11T08:49:10;70.43;;;8.30;;
5955;SDS011;3004;48.080;11.600;2022-11-11T08:51:56;70.50;;;8.33;;
5955;SDS011;3004;48.080;11.600;2022-11-11T08:55:08;70.67;;;8.40;;
5955;SDS011;3004;48.080;11.600;2022-11-11T08:58:03;70.30;;;8.37;;
5955;SDS011;3004;48.080;11.600;2022-11-11T09:03:38;70.17;;;8.47;;
5955;SDS011;3004;48.080;11.600;2022-11-11T09:06:12;70.10;;;8.53;;
5955;SDS011;3004;48.080;11.600;2022-11-11T09:08:57;70.00;;;8.57;;
5955;SDS011;3004;48.080;11.600;2022-11-11T09:11:29;70.07;;;8.57;;
5955;SDS011;3004;48.080;11.600;2022-11-11T09:14:11;69.90;;;8.67;;
5955;SDS011;3004;48.080;11.600;2022-11-11T09:16:43;69.77;;;8.67;;
5955;SDS011;3004;48.080;11.600;2022-11-11T09:19:13;70.27;;;8.73;;
5955;SDS011;3004;48.080;11.600;2022-11-11T09:21:49;70.20;;;8.73;;
5955;SDS011;3004;48.080;11.600;2022-11-11T09:24:34;70.57;;;8.77;;
5955;SDS011;3004;48.080;11.600;2022-11-11T09:27:20;70.93;;;8.73;;
5955;SDS011;3004;48.080;11.600;2022-11-11T09:33:23;70.80;;;8.63;;
5955;SDS011;3004;48.080;11.600;2022-11-11T09:35:56;71.00;;;8.67;;
5955;SDS011;3004;48.080;11.600;2022-11-11T09:38:25;71.30;;;8.50;;
5955;SDS011;3004;48.080;11.600;2022-11-11T09:41:17;71.30;;;8.27;;
5955;SDS011;3004;48.080;11.600;2022-11-11T09:44:13;70.90;;;7.87;;
5955;SDS011;3004;48.080;11.600;2022-11-11T09:47:06;70.50;;;7.60;;
5955;SDS011;3004;48.080;11.600;2022-11-11T09:50:07;84.33;;;9.60;;
5955;SDS011;3004;48.080;11.600;2022-11-11T09:52:42;68.90;;;6.73;;
5955;SDS011;3004;48.080;11.600;2022-11-11T09:55:21;77.00;;;7.30;;
5955;SDS011;3004;48.080;11.600;2022-11-11T09:58:09;69.40;;;6.70;;
5955;SDS011;3004;48.080;11.600;2022-11-11T10:00:50;69.07;;;6.60;;
5955;SDS011;3004;48.080;11.600;2022-11-11T10:03:53;68.57;;;6.20;;
5955;SDS011;3004;48.080;11.600;2022-11-11T10:09:51;68.57;;;5.63;;
5955;SDS011;3004;48.080;11.600;2022-11-11T10:19:51;67.97;;;5.33;;
5955;SDS011;3004;48.080;11.600;2022-11-11T10:26:09;67.10;;;5.10;;
5955;SDS011;3004;48.080;11.600;2022-11-11T10:32:22;67.47;;;4.90;;
5955;SDS011;3004;48.080;11.600;2022-11-11T10:35:12;66.90;;;4.70;;
5955;SDS011;3004;48.080;11.600;2022-11-11T10:37:59;67.37;;;5.27;;
5955;SDS011;3004;48.080;11.600;2022-11-11T10:52:56;66.60;;;3.90;;
5955;SDS011;3004;48.080;11.600;2022-11-11T10:54:32;66.67;;;3.50;;
5955;SDS011;3004;48.080;11.600;2022-11-11T10:56:54;66.37;;;3.30;;
5955;SDS011;3004;48.080;11.600;2022-11-11T10:59:30;66.00;;;3.30;;
5955;SDS011;3004;48.080;11.600;2022-11-11T11:02:12;65.97;;;3.00;;
5955;SDS011;3004;48.080;11.600;2022-11-11T11:04:54;65.87;;;2.90;;
5955;SDS011;3004;48.080;11.600;2022-11-11T11:07:44;65.30;;;2.50;;
5955;SDS011;3004;48.080;11.600;2022-11-11T11:10:20;65.87;;;2.60;;
5955;SDS011;3004;48.080;11.600;2022-11-11T11:13:06;66.07;;;2.50;;
5955;SDS011;3004;48.080;11.600;2022-11-11T11:16:02;66.50;;;3.23;;
5955;SDS011;3004;48.080;11.600;2022-11-11T11:24:37;65.77;;;1.90;;
5955;SDS011;3004;48.080;11.600;2022-11-11T11:27:25;65.73;;;2.00;;
5955;SDS011;3004;48.080;11.600;2022-11-11T11:30:10;65.60;;;2.00;;
5955;SDS011;3004;48.080;11.600;2022-11-11T11:33:08;65.63;;;1.90;;
5955;SDS011;3004;48.080;11.600;2022-11-11T11:36:05;65.80;;;1.90;;
5955;SDS011;3004;48.080;11.600;2022-11-11T11:39:03;65.67;;;2.00;;
5955;SDS011;3004;48.080;11.600;2022-11-11T11:41:58;65.73;;;1.90;;
5955;SDS011;3004;48.080;11.600;2022-11-11T11:44:39;65.80;;;1.90;;
5955;SDS011;3004;48.080;11.600;2022-11-11T11:49:46;66.10;;;1.60;;
5955;SDS011;3004;48.080;11.600;2022-11-11T11:51:24;66.03;;;1.70;;
5955;SDS011;3004;48.080;11.600;2022-11-11T12:34:37;66.30;;;1.10;;
5955;SDS011;3004;48.080;11.600;2022-11-11T12:37:40;66.50;;;1.10;;
5955;SDS011;3004;48.080;11.600;2022-11-11T12:40:34;66.73;;;1.10;;
5955;SDS011;3004;48.080;11.600;2022-11-11T12:43:33;66.73;;;1.20;;
5955;SDS011;3004;48.080;11.600;2022-11-11T12:46:12;66.47;;;1.20;;
5955;SDS011;3004;48.080;11.600;2022-11-11T12:49:02;66.57;;;1.40;;
5955;SDS011;3004;48.080;11.600;2022-11-11T12:54:57;66.53;;;1.20;;
5955;SDS011;3004;48.080;11.600;2022-11-11T12:57:59;71.83;;;3.60;;
5955;SDS011;3004;48.080;11.600;2022-11-11T13:00:44;66.27;;;1.40;;
5955;SDS011;3004;48.080;11.600;2022-11-11T13:04:29;66.23;;;1.30;;
5955;SDS011;3004;48.080;11.600;2022-11-11T13:06:47;65.97;;;1.30;;
5955;SDS011;3004;48.080;11.600;2022-11-11T13:12:41;66.20;;;1.50;;
5955;SDS011;3004;48.080;11.600;2022-11-11T13:15:17;66.17;;;1.40;;
5955;SDS011;3004;48.080;11.600;2022-11-11T13:18:07;66.37;;;1.40;;
5955;SDS011;3004;48.080;11.600;2022-11-11T13:20:56;65.97;;;1.50;;
5955;SDS011;3004;48.080;11.600;2022-11-11T13:23:45;66.30;;;1.50;;
5955;SDS011;3004;48.080;11.600;2022-11-11T13:26:38;71.83;;;3.13;;
5955;SDS011;3004;48.080;11.600;2022-11-11T13:32:32;65.87;;;1.60;;
5955;SDS011;3004;48.080;11.600;2022-11-11T13:35:27;70.00;;;2.43;;
5955;SDS011;3004;48.080;11.600;2022-11-11T13:38:01;65.70;;;1.70;;
5955;SDS011;3004;48.080;11.600;2022-11-11T13:40:36;65.80;;;1.90;;
5955;SDS011;3004;48.080;11.600;2022-11-11T13:43:26;66.70;;;2.47;;
5955;SDS011;3004;48.080;11.600;2022-11-11T13:46:02;66.00;;;1.97;;
5955;SDS011;3004;48.080;11.600;2022-11-11T13:48:56;66.07;;;2.10;;
5955;SDS011;3004;48.080;11.600;2022-11-11T13:51:29;65.53;;;2.13;;
5955;SDS011;3004;48.080;11.600;2022-11-11T13:54:19;66.07;;;2.60;;
5955;SDS011;3004;48.080;11.600;2022-11-11T13:57:04;66.17;;;2.60;;
5955;SDS011;3004;48.080;11.600;2022-11-11T14:00:16;66.27;;;2.50;;
5955;SDS011;3004;48.080;11.600;2022-11-11T14:12:36;70.33;;;3.97;;
5955;SDS011;3004;48.080;11.600;2022-11-11T14:18:40;67.20;;;3.37;;
5955;SDS011;3004;48.080;11.600;2022-11-11T14:24:57;66.07;;;2.60;;
5955;SDS011;3004;48.080;11.600;2022-11-11T14:27:47;70.10;;;4.93;;
5955;SDS011;3004;48.080;11.600;2022-11-11T14:30:31;66.17;;;2.70;;
5955;SDS011;3004;48.080;11.600;2022-11-11T14:33:09;65.97;;;2.70;;
5955;SDS011;3004;48.080;11.600;2022-11-11T14:39:15;75.93;;;8.80;;
5955;SDS011;3004;48.080;11.600;2022-11-11T14:41:56;76.10;;;12.37;;
5955;SDS011;3004;48.080;11.600;2022-11-11T14:44:40;66.47;;;3.03;;
5955;SDS011;3004;48.080;11.600;2022-11-11T14:47:57;65.73;;;2.60;;
5955;SDS011;3004;48.080;11.600;2022-11-11T14:54:04;70.57;;;4.10;;
5955;SDS011;3004;48.080;11.600;2022-11-11T14:56:51;65.63;;;2.40;;
5955;SDS011;3004;48.080;11.600;2022-11-11T15:01:55;66.40;;;3.07;;
5955;SDS011;3004;48.080;11.600;2022-11-11T15:02:54;66.07;;;2.70;;
5955;SDS011;3004;48.080;11.600;2022-11-11T15:05:53;66.17;;;2.93;;
5955;SDS011;3004;48.080;11.600;2022-11-11T15:09:00;66.27;;;2.60;;
5955;SDS011;3004;48.080;11.600;2022-11-11T15:12:21;66.27;;;2.90;;
5955;SDS011;3004;48.080;11.600;2022-11-11T15:15:02;65.87;;;2.80;;
5955;SDS011;3004;48.080;11.600;2022-11-11T15:18:25;66.37;;;3.10;;
5955;SDS011;3004;48.080;11.600;2022-11-11T15:21:11;66.50;;;3.10;;
5955;SDS011;3004;48.080;11.600;2022-11-11T15:23:57;67.93;;;3.73;;
5955;SDS011;3004;48.080;11.600;2022-11-11T15:27:12;66.07;;;2.60;;
5955;SDS011;3004;48.080;11.600;2022-11-11T15:30:20;68.27;;;3.77;;
5955;SDS011;3004;48.080;11.600;2022-11-11T15:32:54;66.10;;;2.90;;
5955;SDS011;3004;48.080;11.600;2022-11-11T15:35:51;66.33;;;3.20;;
5955;SDS011;3004;48.080;11.600;2022-11-11T15:38:27;66.20;;;3.20;;
5955;SDS011;3004;48.080;11.600;2022-11-11T15:54:21;76.50;;;4.97;;
5955;SDS011;3004;48.080;11.600;2022-11-11T15:57:14;66.77;;;3.40;;
5955;SDS011;3004;48.080;11.600;2022-11-11T16:00:00;66.70;;;3.63;;
5955;SDS011;3004;48.080;11.600;2022-11-11T16:03:10;67.17;;;3.80;;
5955;SDS011;3004;48.080;11.600;2022-11-11T16:06:09;67.07;;;3.80;;
5955;SDS011;3004;48.080;11.600;2022-11-11T16:12:02;67.27;;;4.07;;
5955;SDS011;3004;48.080;11.600;2022-11-11T16:14:33;67.20;;;4.27;;
5955;SDS011;3004;48.080;11.600;2022-11-11T16:17:36;66.80;;;4.10;;
5955;SDS011;3004;48.080;11.600;2022-11-11T16:20:27;67.70;;;4.50;;
5955;SDS011;3004;48.080;11.600;2022-11-11T16:26:14;67.77;;;4.37;;
5955;SDS011;3004;48.080;11.600;2022-11-11T16:29:02;67.07;;;4.40;;
5955;SDS011;3004;48.080;11.600;2022-11-11T16:31:45;67.37;;;4.30;;
5955;SDS011;3004;48.080;11.600;2022-11-11T16:34:50;68.07;;;4.70;;
5955;SDS011;3004;48.080;11.600;2022-11-11T16:44:52;67.27;;;4.10;;
5955;SDS011;3004;48.080;11.600;2022-11-11T16:47:41;67.80;;;4.30;;
5955;SDS011;3004;48.080;11.600;2022-11-11T16:50:51;67.27;;;4.07;;
5955;SDS011;3004;48.080;11.600;2022-11-11T17:18:03;67.13;;;5.00;;
5955;SDS011;3004;48.080;11.600;2022-11-11T17:21:04;67.30;;;4.40;;
5955;SDS011;3004;48.080;11.600;2022-11-11T17:24:04;67.57;;;4.60;;
5955;SDS011;3004;48.080;11.600;2022-11-11T17:26:35;67.10;;;4.57;;
5955;SDS011;3004;48.080;11.600;2022-11-11T17:29:04;67.30;;;4.50;;
5955;SDS011;3004;48.080;11.600;2022-11-11T17:31:53;67.77;;;4.80;;
5955;SDS011;3004;48.080;11.600;2022-11-11T17:34:33;67.07;;;4.80;;
5955;SDS011;3004;48.080;11.600;2022-11-11T17:37:36;67.10;;;4.70;;
5955;SDS011;3004;48.080;11.600;2022-11-11T17:43:53;67.37;;;5.00;;
5955;SDS011;3004;48.080;11.600;2022-11-11T17:46:31;66.60;;;4.50;;
5955;SDS011;3004;48.080;11.600;2022-11-11T17:49:06;67.37;;;4.60;;
5955;SDS011;3004;48.080;11.600;2022-11-11T17:51:55;67.00;;;4.60;;
5955;SDS011;3004;48.080;11.600;2022-11-11T17:54:34;66.70;;;4.60;;
5955;SDS011;3004;48.080;11.600;2022-11-11T17:57:41;67.10;;;4.87;;
5955;SDS011;3004;48.080;11.600;2022-11-11T18:00:20;67.03;;;4.77;;
5955;SDS011;3004;48.080;11.600;2022-11-11T18:03:03;67.07;;;4.70;;
5955;SDS011;3004;48.080;11.600;2022-11-11T18:05:43;67.27;;;4.67;;
5955;SDS011;3004;48.080;11.600;2022-11-11T18:08:35;67.27;;;4.73;;
5955;SDS011;3004;48.080;11.600;2022-11-11T18:11:06;67.23;;;4.80;;
5955;SDS011;3004;48.080;11.600;2022-11-11T18:13:43;67.57;;;4.97;;
5955;SDS011;3004;48.080;11.600;2022-11-11T18:16:26;67.53;;;5.50;;
5955;SDS011;3004;48.080;11.600;2022-11-11T18:19:04;67.07;;;4.73;;
5955;SDS011;3004;48.080;11.600;2022-11-11T18:21:51;67.10;;;4.70;;
5955;SDS011;3004;48.080;11.600;2022-11-11T18:24:41;67.97;;;5.30;;
5955;SDS011;3004;48.080;11.600;2022-11-11T18:27:24;66.90;;;4.70;;
5955;SDS011;3004;48.080;11.600;2022-11-11T18:32:26;68.17;;;5.30;;
5955;SDS011;3004;48.080;11.600;2022-11-11T18:33:31;70.53;;;6.00;;
5955;SDS011;3004;48.080;11.600;2022-11-11T18:36:17;68.67;;;6.17;;
5955;SDS011;3004;48.080;11.600;2022-11-11T18:38:57;67.67;;;5.30;;
5955;SDS011;3004;48.080;11.600;2022-11-11T18:41:34;67.57;;;5.07;;
5955;SDS011;3004;48.080;11.600;2022-11-11T18:44:14;67.83;;;5.30;;
5955;SDS011;3004;48.080;11.600;2022-11-11T18:46:57;67.57;;;5.20;;
5955;SDS011;3004;48.080;11.600;2022-11-11T18:49:27;68.07;;;5.40;;
5955;SDS011;3004;48.080;11.600;2022-11-11T18:52:01;68.23;;;5.90;;
5955;SDS011;3004;48.080;11.600;2022-11-11T18:54:49;67.67;;;5.50;;
5955;SDS011;3004;48.080;11.600;2022-11-11T18:57:23;68.33;;;5.60;;
5955;SDS011;3004;48.080;11.600;2022-11-11T19:00:02;68.13;;;5.60;;
5955;SDS011;3004;48.080;11.600;2022-11-11T19:02:34;67.67;;;5.50;;
5955;SDS011;3004;48.080;11.600;2022-11-11T19:05:08;67.83;;;5.60;;
5955;SDS011;3004;48.080;11.600;2022-11-11T19:07:47;67.00;;;5.30;;
5955;SDS011;3004;48.080;11.600;2022-11-11T19:10:24;67.07;;;5.17;;
5955;SDS011;3004;48.080;11.600;2022-11-11T19:13:01;68.23;;;5.67;;
5955;SDS011;3004;48.080;11.600;2022-11-11T19:15:40;67.37;;;5.17;;
5955;SDS011;3004;48.080;11.600;2022-11-11T19:18:16;67.27;;;5.13;;
5955;SDS011;3004;48.080;11.600;2022-11-11T19:20:51;67.60;;;5.50;;
5955;SDS011;3004;48.080;11.600;2022-11-11T19:26:27;67.40;;;5.20;;
5955;SDS011;3004;48.080;11.600;2022-11-11T19:29:14;67.37;;;5.30;;
5955;SDS011;3004;48.080;11.600;2022-11-11T19:31:54;66.97;;;5.03;;
5955;SDS011;3004;48.080;11.600;2022-11-11T19:35:02;67.27;;;5.00;;
5955;SDS011;3004;48.080;11.600;2022-11-11T19:37:38;67.30;;;5.00;;
5955;SDS011;3004;48.080;11.600;2022-11-11T19:43:13;67.80;;;5.20;;
5955;SDS011;3004;48.080;11.600;2022-11-11T19:45:59;66.87;;;5.07;;
5955;SDS011;3004;48.080;11.600;2022-11-11T19:48:46;70.00;;;7.37;;
5955;SDS011;3004;48.080;11.600;2022-11-11T19:51:31;67.07;;;5.00;;
5955;SDS011;3004;48.080;11.600;2022-11-11T19:54:15;67.57;;;5.77;;
5955;SDS011;3004;48.080;11.600;2022-11-11T19:56:51;67.47;;;5.60;;
5955;SDS011;3004;48.080;11.600;2022-11-11T19:59:21;67.07;;;4.90;;
5955;SDS011;3004;48.080;11.600;2022-11-11T20:01:57;66.90;;;5.10;;
5955;SDS011;3004;48.080;11.600;2022-11-11T20:04:37;68.00;;;5.50;;
5955;SDS011;3004;48.080;11.600;2022-11-11T20:07:35;71.20;;;7.40;;
5955;SDS011;3004;48.080;11.600;2022-11-11T20:10:34;67.13;;;5.10;;
5955;SDS011;3004;48.080;11.600;2022-11-11T20:13:12;67.03;;;4.87;;
5955;SDS011;3004;48.080;11.600;2022-11-11T20:15:42;67.53;;;5.83;;
5955;SDS011;3004;48.080;11.600;2022-11-11T20:18:21;70.67;;;7.83;;
5955;SDS011;3004;48.080;11.600;2022-11-11T20:20:56;67.20;;;5.33;;
5955;SDS011;3004;48.080;11.600;2022-11-11T20:23:28;67.40;;;5.50;;
5955;SDS011;3004;48.080;11.600;2022-11-11T20:26:12;67.77;;;5.60;;
5955;SDS011;3004;48.080;11.600;2022-11-11T20:28:52;67.70;;;5.80;;
5955;SDS011;3004;48.080;11.600;2022-11-11T20:31:28;67.50;;;5.70;;
5955;SDS011;3004;48.080;11.600;2022-11-11T20:34:26;67.80;;;5.77;;
5955;SDS011;3004;48.080;11.600;2022-11-11T20:36:53;68.10;;;5.80;;